Algerita, Texas
Current Conditions -  °F | °C
As of 7:35 PM on Tuesday 21 Oct 2014 (Local Time) from KBBD Reporting Station
Clear Clear  
Wind Chill: 72°   Ceiling: Unl
Heat Index: 72°   Visibility: 10mi
Dew Point: 54°   Wind: 5mph
Humidity: 53%   Direction: 120°ESE
Pressure: 30.04"   Gusts: NA
Location:  31.0718°N, 98.8001°W
Report Text: KBBD 220035Z AUTO 12004KT 10SM CLR 22/12 A3004 RMK
Loading
Personal Weather Stations






























Interactive Weather Map New forecast layout! Learn more

10-Day Weather Forecast

Advertisements
Track Severe Weather on mobile